シドニー の空港の天気 - METARとTAF

シドニー国際空港 ( YSSY / SYD ) - オーストラリア ニューサウスウェールズ州、Mascot
飛行場実況気象(Metar)
観測時間06/21 16:00 AEST (06/21 06:00 UTC)
風向・風速南 5m/s
視程10km以上
天気現象弱いしゅう雨
全天の4割程度の雲 雲底高度 670m
気温15℃
湿度77%
気圧1026hPa
METARYSSY 210600Z 19010KT 9999 -SHRA SCT022 15/11 Q1026
過去の天気等 Google飛行場航空写真 Wunderground天気予報

過去48時間のMETAR

飛行場予報(TAF)
発表時間: 6/21 15:15 AEST (6/21 05:15 UTC)
予報対象時間: 21日16時 AEST ~ 22日22時 AEST
風向・風速南南西 7m/s
視程10km以上
天気現象弱いしゅう雨
全天の4割程度の雲 雲底高度 760m
全天の4割程度の雲 雲底高度 1220m
21日19時 AEST から
風向・風速南西 4m/s
視程10km以上
天気現象運行に影響にある天気現象が終了
全天の4割程度の雲 雲底高度 910m
全天の4割程度の雲 雲底高度 1370m
22日2時 AEST から
風向・風速西 3m/s
視程10km以上
全天の4割程度の雲 雲底高度 910m
全天の4割程度の雲 雲底高度 1370m
22日8時 AEST から
風向・風速西南西 4m/s
視程10km以上
全天の4割程度の雲 雲底高度 910m
全天の4割程度の雲 雲底高度 1370m
22日11時 AEST から
風向・風速南 5m/s
視程10km以上
全天の4割程度の雲 雲底高度 910m
全天の4割程度の雲 雲底高度 1220m
TAF YSSY 210515Z 2106/2212 20014KT 9999 -SHRA SCT025 SCT040
FM210900 23008KT 9999 NSW SCT030 SCT045
FM211600 28006KT 9999 SCT030 SCT045
FM212200 24007KT 9999 SCT030 SCT045
FM220100 17010KT 9999 SCT030 SCT040 INTER 2106/2107 5000 SHRA SCT015 BKN025